Terminal Aerodrome Forecast
Issued by NWS Cleveland, OH

Home | Current Version | Previous Version | Text Only | Print | Product List | Glossary Off
Versions: 1 2 3 4 5 6 7 8 9 10 11 12 13 14 15 16 17 18 19 20

125
FTUS41 KCLE 120533
TAFTOL
TAF
KTOL 120533Z 1206/1306 34008KT 1 1/2SM -SN OVC015
      TEMPO 1206/1209 3SM -SN SCT012 OVC025
     FM120900 30014G22KT 5SM -SHSN OVC025
     FM121400 30018G28KT P6SM OVC035=

USA.gov is the U.S. government's official web portal to all federal, state and local government web resources and services.